createdAt,value
2018-09-28T00:02:15.534Z,3.07
2018-09-28T00:04:44.314Z,3.40
2018-09-28T00:07:13.008Z,3.33
2018-09-28T00:09:41.801Z,3.50
2018-09-28T00:12:10.541Z,3.37
2018-09-28T00:14:39.289Z,3.37
2018-09-28T00:17:08.057Z,3.30
2018-09-28T00:19:36.921Z,3.37
2018-09-28T00:22:05.611Z,3.30
2018-09-28T00:24:34.365Z,3.30
2018-09-28T00:27:03.131Z,3.27
2018-09-28T00:29:32.101Z,3.60
2018-09-28T00:32:00.824Z,3.13
2018-09-28T00:34:29.612Z,3.50
2018-09-28T00:36:58.331Z,3.60
2018-09-28T00:39:26.983Z,3.00
2018-09-28T00:41:55.681Z,3.70
2018-09-28T00:44:24.392Z,3.50
2018-09-28T00:46:53.133Z,3.37
2018-09-28T00:49:21.831Z,3.37
2018-09-28T00:51:50.680Z,3.30
2018-09-28T00:54:19.394Z,3.80
2018-09-28T00:56:48.079Z,3.17
2018-09-28T00:59:16.779Z,3.40
2018-09-28T01:01:45.449Z,3.93
2018-09-28T01:04:14.180Z,3.33
2018-09-28T01:06:42.926Z,3.43
2018-09-28T01:09:13.770Z,3.60
2018-09-28T01:11:42.471Z,3.13
2018-09-28T01:14:11.186Z,3.37
2018-09-28T01:16:39.910Z,2.80
2018-09-28T01:19:08.676Z,3.20
2018-09-28T01:21:37.399Z,2.87
2018-09-28T01:24:06.294Z,3.43
2018-09-28T01:26:35.042Z,3.00
2018-09-28T01:29:03.899Z,3.00
2018-09-28T01:31:32.575Z,3.03
2018-09-28T01:34:01.279Z,2.93
2018-09-28T01:36:30.088Z,3.13
2018-09-28T01:38:58.809Z,2.87
2018-09-28T01:41:27.494Z,3.10
2018-09-28T01:43:56.150Z,3.20
2018-09-28T01:46:24.955Z,3.23
2018-09-28T01:48:53.675Z,3.00
2018-09-28T01:51:22.423Z,2.90
2018-09-28T01:53:51.101Z,3.07
2018-09-28T01:56:19.809Z,3.17
2018-09-28T01:58:48.518Z,3.13
2018-09-28T02:01:17.170Z,3.07
2018-09-28T02:03:45.855Z,3.47
2018-09-28T02:06:14.669Z,3.07
2018-09-28T02:08:43.352Z,2.63
2018-09-28T02:11:12.039Z,2.70
2018-09-28T02:13:40.726Z,3.10
2018-09-28T02:16:09.934Z,3.10
2018-09-28T02:18:39.497Z,2.93
2018-09-28T02:21:08.239Z,2.80
2018-09-28T02:23:37.120Z,2.80
2018-09-28T02:26:05.883Z,2.80
2018-09-28T02:28:34.570Z,3.20
2018-09-28T02:31:03.264Z,2.90
2018-09-28T02:33:35.838Z,3.30
2018-09-28T02:36:04.565Z,3.27
2018-09-28T02:38:33.282Z,3.40
2018-09-28T02:41:02.110Z,3.10
2018-09-28T02:43:30.848Z,3.40
2018-09-28T02:45:59.570Z,3.10
2018-09-28T02:48:28.379Z,3.43
2018-09-28T02:50:57.019Z,3.53
2018-09-28T02:53:25.687Z,3.30
2018-09-28T02:55:54.479Z,3.30
2018-09-28T02:58:23.141Z,3.17
2018-09-28T03:00:52.042Z,3.00
2018-09-28T03:03:20.783Z,3.40
2018-09-28T03:05:49.455Z,3.23
2018-09-28T03:08:18.158Z,3.10
2018-09-28T03:10:46.868Z,3.27
2018-09-28T03:13:15.621Z,3.00
2018-09-28T03:15:44.424Z,3.40
2018-09-28T03:18:13.186Z,3.40
2018-09-28T03:20:41.863Z,3.10
2018-09-28T03:23:10.634Z,3.33
2018-09-28T03:25:39.314Z,3.27
2018-09-28T03:28:08.055Z,3.20
2018-09-28T03:30:36.754Z,3.30
2018-09-28T03:33:05.492Z,3.33
2018-09-28T03:35:34.231Z,3.73
2018-09-28T03:38:02.966Z,3.30
2018-09-28T03:40:31.680Z,3.63
2018-09-28T03:43:00.439Z,3.57
2018-09-28T03:45:29.109Z,3.10
2018-09-28T03:47:57.884Z,3.30
2018-09-28T03:50:26.650Z,3.27
2018-09-28T03:52:55.358Z,3.20
2018-09-28T03:55:24.040Z,3.33
2018-09-28T03:57:52.755Z,3.27
2018-09-28T04:00:21.787Z,3.33
2018-09-28T04:02:50.555Z,3.40
2018-09-28T04:05:19.249Z,3.20
2018-09-28T04:07:48.003Z,3.30
2018-09-28T04:10:16.675Z,3.03
2018-09-28T04:12:45.333Z,3.20
2018-09-28T04:15:14.223Z,2.60
2018-09-28T04:17:48.549Z,3.40
2018-09-28T04:20:17.266Z,3.17
2018-09-28T04:22:46.050Z,3.43
2018-09-28T04:25:14.877Z,3.20
2018-09-28T04:27:43.666Z,3.47
2018-09-28T04:30:12.433Z,3.53
2018-09-28T04:32:41.170Z,3.67
2018-09-28T04:35:09.947Z,3.87
2018-09-28T04:37:38.640Z,3.70
2018-09-28T04:40:07.439Z,3.53
2018-09-28T04:42:36.269Z,3.43
2018-09-28T04:45:05.273Z,3.23
2018-09-28T04:47:34.015Z,3.20
2018-09-28T04:50:02.771Z,3.33
2018-09-28T04:52:31.475Z,3.77
2018-09-28T04:55:00.238Z,3.33
2018-09-28T04:57:29.316Z,3.83
2018-09-28T04:59:58.103Z,3.20
2018-09-28T05:02:26.787Z,4.17
2018-09-28T05:04:55.497Z,4.20
2018-09-28T05:07:24.168Z,3.70
2018-09-28T05:09:52.886Z,4.33
2018-09-28T05:12:21.733Z,4.17
2018-09-28T05:14:50.457Z,4.67
2018-09-28T05:17:19.226Z,4.60
2018-09-28T05:19:47.991Z,4.53
2018-09-28T05:22:16.715Z,4.43
2018-09-28T05:24:45.369Z,4.00
2018-09-28T05:27:14.075Z,3.90
2018-09-28T05:29:42.882Z,3.90
2018-09-28T05:32:11.718Z,4.43
2018-09-28T05:34:40.514Z,4.60
2018-09-28T05:37:09.322Z,4.23
2018-09-28T05:39:38.055Z,4.13
2018-09-28T05:42:06.899Z,3.97
2018-09-28T05:44:35.599Z,3.63
2018-09-28T05:47:04.303Z,3.90
2018-09-28T05:49:33.141Z,4.43
2018-09-28T05:52:01.851Z,3.97
2018-09-28T05:54:30.625Z,4.40
2018-09-28T05:56:59.323Z,3.90
2018-09-28T05:59:33.218Z,4.80
2018-09-28T06:02:07.242Z,5.33
2018-09-28T06:04:41.136Z,4.57
2018-09-28T06:07:09.899Z,4.00
2018-09-28T06:09:38.611Z,5.17
2018-09-28T06:12:07.339Z,5.37
2018-09-28T06:14:36.126Z,5.40
2018-09-28T06:17:05.174Z,5.60
2018-09-28T06:19:34.008Z,6.00
2018-09-28T06:22:02.743Z,6.43
2018-09-28T06:24:31.458Z,5.93
2018-09-28T06:27:00.223Z,5.83
2018-09-28T06:29:28.967Z,6.00
2018-09-28T06:31:57.753Z,5.70
2018-09-28T06:34:26.540Z,5.40
2018-09-28T06:36:55.258Z,5.20
2018-09-28T06:39:24.001Z,5.30
2018-09-28T06:41:52.830Z,5.10
2018-09-28T06:44:21.483Z,6.20
2018-09-28T06:46:50.186Z,8.37
2018-09-28T06:49:18.860Z,8.17
2018-09-28T06:51:47.615Z,8.43
2018-09-28T06:54:16.411Z,7.37
2018-09-28T06:56:45.143Z,7.20
2018-09-28T06:59:13.922Z,5.70
2018-09-28T07:01:42.662Z,5.13
2018-09-28T07:04:11.443Z,6.13
2018-09-28T07:06:40.206Z,6.17
2018-09-28T07:09:11.018Z,5.47
2018-09-28T07:11:39.712Z,5.43
2018-09-28T07:14:08.822Z,5.93
2018-09-28T07:16:37.965Z,5.50
2018-09-28T07:19:06.930Z,5.73
2018-09-28T07:21:35.778Z,6.53
2018-09-28T07:24:04.615Z,6.63
2018-09-28T07:26:33.379Z,6.20
2018-09-28T07:29:02.126Z,6.37
2018-09-28T07:31:30.895Z,5.60
2018-09-28T07:33:59.692Z,5.77
2018-09-28T07:36:28.566Z,5.20
2018-09-28T07:38:57.261Z,5.67
2018-09-28T07:41:26.040Z,5.03
2018-09-28T07:43:54.777Z,5.33
2018-09-28T07:46:23.524Z,4.73
2018-09-28T07:48:52.166Z,5.17
2018-09-28T07:51:20.886Z,4.73
2018-09-28T07:53:49.594Z,5.23
2018-09-28T07:56:18.356Z,5.00
2018-09-28T07:58:47.090Z,4.73
2018-09-28T08:01:15.874Z,4.83
2018-09-28T08:03:44.619Z,4.30
2018-09-28T08:06:13.435Z,4.63
2018-09-28T08:08:43.742Z,4.60
2018-09-28T08:11:13.548Z,4.50
2018-09-28T08:13:43.399Z,4.37
2018-09-28T08:16:13.816Z,4.53
2018-09-28T08:18:43.786Z,4.50
2018-09-28T08:21:12.772Z,4.63
2018-09-28T08:23:41.481Z,4.33
2018-09-28T08:26:10.181Z,4.70
2018-09-28T08:28:38.866Z,4.07
2018-09-28T08:31:07.540Z,4.43
2018-09-28T08:33:36.416Z,4.40
2018-09-28T08:36:05.100Z,4.47
2018-09-28T08:38:33.857Z,5.30
2018-09-28T08:41:02.612Z,4.60
2018-09-28T08:43:31.314Z,4.00
2018-09-28T08:46:00.102Z,4.77
2018-09-28T08:48:28.830Z,4.57
2018-09-28T08:50:57.526Z,4.97
2018-09-28T08:53:26.277Z,4.97
2018-09-28T08:55:54.887Z,4.90
2018-09-28T08:58:23.586Z,4.77
2018-09-28T09:00:52.268Z,4.53
2018-09-28T09:03:20.987Z,5.17
2018-09-28T09:05:49.686Z,5.10
2018-09-28T09:08:18.430Z,4.80
2018-09-28T09:10:47.179Z,6.07
2018-09-28T09:13:15.907Z,5.30
2018-09-28T09:15:44.635Z,6.80
2018-09-28T09:18:13.464Z,5.83
2018-09-28T09:20:42.047Z,8.07
2018-09-28T09:23:10.813Z,7.43
2018-09-28T09:25:39.569Z,7.10
2018-09-28T09:28:08.327Z,6.73
2018-09-28T09:30:37.100Z,6.67
2018-09-28T09:33:05.870Z,7.30
2018-09-28T09:35:34.632Z,6.70
2018-09-28T09:38:03.414Z,6.80
2018-09-28T09:40:32.109Z,6.47
2018-09-28T09:43:00.823Z,6.30
2018-09-28T09:45:29.506Z,6.47
2018-09-28T09:47:58.212Z,7.37
2018-09-28T09:50:26.883Z,7.60
2018-09-28T09:52:55.634Z,7.83
2018-09-28T09:55:24.459Z,8.13
2018-09-28T09:57:53.319Z,7.17
2018-09-28T10:00:27.149Z,7.03
2018-09-28T10:03:06.858Z,7.77
2018-09-28T10:05:36.610Z,6.70
2018-09-28T10:08:05.378Z,6.50
2018-09-28T10:10:34.050Z,6.50
2018-09-28T10:13:02.776Z,6.93
2018-09-28T10:15:31.454Z,6.40
2018-09-28T10:18:00.170Z,7.07
2018-09-28T10:20:28.930Z,7.40
2018-09-28T10:22:57.551Z,6.17
2018-09-28T10:25:26.370Z,7.60
2018-09-28T10:27:55.187Z,7.90
2018-09-28T10:30:23.872Z,7.33
2018-09-28T10:32:52.662Z,8.57
2018-09-28T10:35:21.459Z,8.07
2018-09-28T10:37:50.163Z,7.53
2018-09-28T10:40:18.945Z,6.87
2018-09-28T10:42:47.564Z,7.60
2018-09-28T10:45:16.410Z,7.53
2018-09-28T10:47:45.080Z,7.97
2018-09-28T10:50:13.719Z,7.30
2018-09-28T10:52:42.486Z,7.10
2018-09-28T10:55:11.093Z,8.50
2018-09-28T10:57:39.812Z,7.93
2018-09-28T11:00:08.527Z,8.00
2018-09-28T11:02:37.258Z,7.77
2018-09-28T11:05:06.066Z,7.93
2018-09-28T11:07:34.714Z,7.83
2018-09-28T11:10:03.534Z,7.30
2018-09-28T11:12:32.202Z,8.13
2018-09-28T11:15:00.882Z,7.53
2018-09-28T11:17:29.594Z,7.90
2018-09-28T11:19:58.445Z,7.13
2018-09-28T11:22:27.142Z,8.27
2018-09-28T11:24:55.870Z,7.40
2018-09-28T11:27:24.668Z,7.80
2018-09-28T11:29:53.388Z,9.30
2018-09-28T11:32:22.117Z,8.13
2018-09-28T11:34:50.827Z,7.60
2018-09-28T11:37:20.514Z,5.90
2018-09-28T11:39:49.325Z,6.53
2018-09-28T11:42:18.018Z,8.03
2018-09-28T11:44:46.811Z,7.60
2018-09-28T11:47:15.526Z,6.93
2018-09-28T11:49:44.225Z,6.30
2018-09-28T11:52:12.890Z,6.43
2018-09-28T11:54:41.591Z,6.13
2018-09-28T11:57:10.281Z,5.60
2018-09-28T11:59:38.959Z,6.33
2018-09-28T12:02:07.807Z,6.33
2018-09-28T12:04:36.643Z,5.67
2018-09-28T12:07:05.524Z,6.67
2018-09-28T12:09:34.314Z,6.23
2018-09-28T12:12:03.114Z,4.93
2018-09-28T12:14:31.838Z,5.90
2018-09-28T12:17:00.619Z,6.80
2018-09-28T12:19:29.346Z,6.80
2018-09-28T12:21:58.098Z,4.57
2018-09-28T12:24:26.825Z,5.63
2018-09-28T12:26:55.522Z,5.40
2018-09-28T12:29:24.270Z,4.30
2018-09-28T12:31:52.999Z,4.80
2018-09-28T12:34:21.667Z,5.50
2018-09-28T12:36:50.569Z,4.40
2018-09-28T12:39:19.330Z,5.00
2018-09-28T12:41:48.531Z,5.43
2018-09-28T12:44:19.818Z,5.93
2018-09-28T12:46:49.883Z,6.00
2018-09-28T12:49:18.574Z,5.13
2018-09-28T12:51:47.246Z,5.80
2018-09-28T12:54:15.993Z,3.83
2018-09-28T12:56:44.805Z,4.93
2018-09-28T12:59:13.538Z,5.00
2018-09-28T13:01:42.376Z,5.43
2018-09-28T13:04:17.078Z,6.03
2018-09-28T13:06:47.106Z,4.87
2018-09-28T13:09:15.732Z,4.90
2018-09-28T13:11:45.857Z,7.77
2018-09-28T13:14:14.779Z,5.00
2018-09-28T13:16:43.621Z,5.37
2018-09-28T13:19:12.365Z,5.40
2018-09-28T13:21:42.264Z,5.67
2018-09-28T13:24:10.920Z,4.83
2018-09-28T13:26:39.800Z,4.83
2018-09-28T13:29:08.483Z,4.83
2018-09-28T13:31:37.455Z,6.53
2018-09-28T13:34:06.311Z,6.00
2018-09-28T13:36:35.103Z,6.33
2018-09-28T13:39:05.150Z,6.33
2018-09-28T13:41:33.919Z,6.63
2018-09-28T13:44:03.164Z,5.87
2018-09-28T13:46:32.297Z,5.40
2018-09-28T13:49:01.070Z,5.37
2018-09-28T13:51:29.891Z,6.30
2018-09-28T13:53:58.644Z,6.13
2018-09-28T13:56:27.599Z,5.40
2018-09-28T13:58:56.279Z,7.13
2018-09-28T14:01:25.174Z,8.23
2018-09-28T14:03:53.863Z,7.53
2018-09-28T14:06:22.605Z,8.83
2018-09-28T14:08:53.070Z,8.43
2018-09-28T14:11:21.894Z,7.87
2018-09-28T14:13:51.084Z,7.77
2018-09-28T14:16:20.492Z,7.53
2018-09-28T14:18:49.537Z,7.30
2018-09-28T14:21:19.684Z,7.37
2018-09-28T14:23:49.532Z,7.97
2018-09-28T14:26:18.408Z,7.37
2018-09-28T14:28:47.654Z,8.77
2018-09-28T14:31:16.434Z,8.80
2018-09-28T14:33:45.129Z,8.00
2018-09-28T14:36:13.916Z,7.47
2018-09-28T14:38:42.660Z,7.13
2018-09-28T14:41:11.474Z,7.33
2018-09-28T14:43:40.461Z,8.03
2018-09-28T14:46:09.355Z,7.80
2018-09-28T14:48:38.207Z,9.00
2018-09-28T14:51:07.445Z,8.20
2018-09-28T14:53:36.258Z,9.37
2018-09-28T14:56:04.942Z,8.90
2018-09-28T14:58:33.721Z,7.77
2018-09-28T15:01:02.559Z,7.63
2018-09-28T15:03:31.193Z,7.67
2018-09-28T15:05:59.997Z,9.33
2018-09-28T15:08:28.842Z,10.13
2018-09-28T15:10:57.971Z,8.77
2018-09-28T15:13:26.770Z,9.00
2018-09-28T15:15:55.473Z,9.73
2018-09-28T15:18:24.390Z,9.47
2018-09-28T15:20:53.320Z,9.43
2018-09-28T15:23:22.098Z,8.67
2018-09-28T15:25:50.823Z,10.13
2018-09-28T15:28:19.537Z,10.33
2018-09-28T15:30:48.270Z,10.57
2018-09-28T15:33:17.385Z,8.90
2018-09-28T15:35:46.630Z,9.07
2018-09-28T15:38:15.439Z,8.50
2018-09-28T15:40:44.192Z,8.27
2018-09-28T15:43:12.917Z,7.97
2018-09-28T15:45:42.476Z,8.53
2018-09-28T15:48:12.344Z,6.90
2018-09-28T15:50:41.106Z,7.73
2018-09-28T15:53:09.914Z,8.07
2018-09-28T15:55:38.682Z,7.33
2018-09-28T15:58:07.551Z,7.33
2018-09-28T16:00:36.359Z,6.67
2018-09-28T16:03:05.095Z,6.43
2018-09-28T16:05:33.826Z,5.77
2018-09-28T16:08:02.612Z,5.20
2018-09-28T16:10:33.302Z,5.33
2018-09-28T16:13:02.208Z,5.23
2018-09-28T16:15:31.152Z,5.07
2018-09-28T16:17:59.898Z,4.70
2018-09-28T16:20:28.621Z,4.80
2018-09-28T16:22:57.343Z,4.93
2018-09-28T16:25:26.172Z,4.87
2018-09-28T16:27:55.252Z,5.47
2018-09-28T16:30:24.038Z,4.33
2018-09-28T16:32:53.145Z,4.50
2018-09-28T16:35:21.818Z,4.00
2018-09-28T16:37:50.542Z,4.00
2018-09-28T16:40:19.303Z,4.40
2018-09-28T16:42:48.059Z,4.00
2018-09-28T16:45:16.844Z,3.40
2018-09-28T16:47:45.567Z,3.57
2018-09-28T16:50:14.302Z,2.80
2018-09-28T16:52:43.019Z,2.60
2018-09-28T16:55:11.790Z,2.83
2018-09-28T16:57:40.477Z,2.80
2018-09-28T17:00:09.267Z,2.27
2018-09-28T17:02:37.962Z,2.10
2018-09-28T17:05:06.690Z,2.10
2018-09-28T17:07:35.399Z,2.10
2018-09-28T17:10:04.224Z,2.13
2018-09-28T17:12:33.034Z,2.43
2018-09-28T17:15:01.779Z,2.20
2018-09-28T17:17:30.530Z,2.07
2018-09-28T17:19:59.351Z,2.07
2018-09-28T17:22:28.172Z,2.50
2018-09-28T17:24:56.912Z,3.70
2018-09-28T17:27:25.622Z,4.23
2018-09-28T17:29:54.411Z,4.23
2018-09-28T17:32:23.122Z,5.17
2018-09-28T17:34:51.895Z,5.07
2018-09-28T17:37:20.550Z,5.77
2018-09-28T17:39:49.361Z,4.90
2018-09-28T17:42:18.106Z,4.87
2018-09-28T17:44:46.867Z,4.80
2018-09-28T17:47:15.549Z,5.03
2018-09-28T17:49:44.250Z,4.73
2018-09-28T17:52:12.938Z,4.33
2018-09-28T17:54:41.639Z,4.43
2018-09-28T17:57:10.362Z,4.37
2018-09-28T17:59:39.170Z,4.17
2018-09-28T18:02:07.859Z,4.33
2018-09-28T18:04:36.703Z,3.93
2018-09-28T18:07:05.432Z,4.50
2018-09-28T18:09:34.266Z,3.93
2018-09-28T18:12:03.030Z,4.20
2018-09-28T18:14:31.782Z,4.17
2018-09-28T18:17:00.622Z,4.47
2018-09-28T18:19:29.402Z,4.53
2018-09-28T18:21:58.135Z,4.30
2018-09-28T18:24:26.815Z,4.57
2018-09-28T18:26:55.547Z,4.87
2018-09-28T18:29:24.243Z,4.37
2018-09-28T18:31:52.972Z,4.60
2018-09-28T18:34:21.709Z,4.57
2018-09-28T18:36:50.469Z,4.63
2018-09-28T18:39:19.161Z,4.90
2018-09-28T18:41:47.931Z,4.23
2018-09-28T18:44:16.658Z,4.37
2018-09-28T18:46:45.367Z,4.63
2018-09-28T18:49:14.066Z,5.00
2018-09-28T18:51:42.790Z,5.03
2018-09-28T18:54:11.638Z,4.50
2018-09-28T18:56:40.651Z,4.80
2018-09-28T18:59:09.319Z,4.90
2018-09-28T19:01:38.031Z,4.80
2018-09-28T19:04:06.815Z,5.20
2018-09-28T19:06:35.544Z,4.83
2018-09-28T19:09:06.102Z,4.60
2018-09-28T19:11:34.798Z,4.70
2018-09-28T19:14:03.530Z,4.73
2018-09-28T19:16:32.340Z,5.40
2018-09-28T19:19:01.036Z,5.17
2018-09-28T19:21:29.833Z,4.83
2018-09-28T19:23:58.578Z,4.77
2018-09-28T19:26:27.351Z,4.40
2018-09-28T19:28:56.065Z,5.07
2018-09-28T19:31:24.886Z,5.63
2018-09-28T19:33:53.642Z,5.20
2018-09-28T19:36:22.620Z,5.73
2018-09-28T19:38:51.573Z,5.27
2018-09-28T19:41:20.334Z,5.57
2018-09-28T19:43:49.312Z,5.90
2018-09-28T19:46:18.098Z,5.67
2018-09-28T19:48:47.179Z,5.57
2018-09-28T19:51:15.927Z,5.50
2018-09-28T19:53:44.599Z,5.80
2018-09-28T19:56:13.434Z,5.10
2018-09-28T19:58:42.147Z,5.87
2018-09-28T20:01:10.863Z,4.77
2018-09-28T20:03:39.566Z,5.63
2018-09-28T20:06:08.354Z,5.47
2018-09-28T20:08:37.082Z,5.20
2018-09-28T20:11:06.002Z,5.33
2018-09-28T20:13:34.730Z,4.63
2018-09-28T20:16:03.463Z,5.10
2018-09-28T20:18:32.252Z,5.67
2018-09-28T20:21:01.229Z,5.33
2018-09-28T20:23:30.074Z,4.70
2018-09-28T20:25:58.825Z,5.20
2018-09-28T20:28:28.003Z,4.97
2018-09-28T20:30:56.708Z,4.77
2018-09-28T20:33:25.425Z,4.63
2018-09-28T20:35:54.165Z,5.03
2018-09-28T20:38:23.049Z,5.13
2018-09-28T20:40:51.864Z,4.70
2018-09-28T20:43:21.018Z,5.10
2018-09-28T20:45:49.838Z,5.13
2018-09-28T20:48:18.695Z,5.50
2018-09-28T20:50:48.491Z,5.07
2018-09-28T20:53:17.296Z,4.90
2018-09-28T20:55:46.936Z,4.70
2018-09-28T20:58:16.493Z,4.73
2018-09-28T21:00:45.255Z,5.37
2018-09-28T21:03:14.066Z,4.80
2018-09-28T21:05:43.189Z,5.10
2018-09-28T21:08:12.375Z,5.03
2018-09-28T21:10:41.699Z,4.67
2018-09-28T21:13:10.897Z,4.17
2018-09-28T21:15:39.878Z,4.67
2018-09-28T21:18:08.759Z,4.60
2018-09-28T21:20:37.530Z,4.60
2018-09-28T21:23:06.369Z,4.27
2018-09-28T21:25:35.150Z,5.13
2018-09-28T21:28:04.018Z,3.67
2018-09-28T21:30:32.892Z,3.90
2018-09-28T21:33:01.676Z,3.93
2018-09-28T21:35:30.490Z,4.60
2018-09-28T21:37:59.252Z,3.87
2018-09-28T21:40:27.939Z,4.03
2018-09-28T21:42:56.753Z,3.60
2018-09-28T21:45:25.454Z,4.30
2018-09-28T21:47:54.223Z,3.60
2018-09-28T21:50:22.955Z,3.40
2018-09-28T21:52:51.743Z,3.83
2018-09-28T21:55:20.407Z,3.77
2018-09-28T21:57:49.161Z,3.50
2018-09-28T22:00:17.902Z,3.07
2018-09-28T22:02:46.933Z,3.73
2018-09-28T22:05:15.825Z,3.67
2018-09-28T22:07:44.506Z,3.07
2018-09-28T22:10:13.202Z,3.03
2018-09-28T22:12:42.018Z,2.93
2018-09-28T22:15:10.796Z,2.40
2018-09-28T22:17:39.524Z,2.43
2018-09-28T22:20:08.311Z,2.93
2018-09-28T22:22:37.063Z,2.50
2018-09-28T22:25:05.883Z,1.73
2018-09-28T22:27:34.571Z,2.67
2018-09-28T22:30:03.363Z,1.77
2018-09-28T22:32:32.035Z,1.90
2018-09-28T22:35:00.815Z,1.77
2018-09-28T22:37:29.511Z,1.70
2018-09-28T22:39:58.326Z,1.73
2018-09-28T22:42:27.062Z,1.77
2018-09-28T22:44:55.799Z,1.77
2018-09-28T22:47:24.539Z,1.40
2018-09-28T22:49:53.319Z,1.50
2018-09-28T22:52:21.998Z,1.43
2018-09-28T22:54:50.837Z,1.50
2018-09-28T22:57:19.489Z,1.40
2018-09-28T22:59:48.165Z,1.37
2018-09-28T23:02:16.808Z,1.30
2018-09-28T23:04:45.501Z,1.30
2018-09-28T23:07:14.203Z,1.43
2018-09-28T23:09:43.046Z,1.70
2018-09-28T23:12:11.722Z,1.50
2018-09-28T23:14:40.480Z,1.80
2018-09-28T23:17:09.237Z,1.40
2018-09-28T23:19:38.006Z,1.50
2018-09-28T23:22:06.783Z,1.90
2018-09-28T23:24:35.487Z,1.40
2018-09-28T23:27:04.143Z,1.83
2018-09-28T23:29:32.834Z,1.50
2018-09-28T23:32:01.574Z,1.40
2018-09-28T23:34:30.318Z,1.30
2018-09-28T23:36:58.938Z,1.63
2018-09-28T23:39:27.590Z,1.50
2018-09-28T23:41:56.286Z,1.50
2018-09-28T23:44:24.977Z,1.47
2018-09-28T23:46:53.679Z,1.73
2018-09-28T23:49:22.678Z,1.63
2018-09-28T23:51:51.771Z,1.50
2018-09-28T23:54:20.458Z,1.20
2018-09-28T23:56:49.224Z,1.10
2018-09-28T23:59:17.924Z,1.43
